sensor_id;sensor_type;location;lat;lon;timestamp;P1;durP1;ratioP1;P2;durP2;ratioP2
21611;SDS011;47005;52.292;13.452;2023-01-08T00:01:57;5.87;;;3.83;;
21611;SDS011;47005;52.292;13.452;2023-01-08T00:04:22;5.20;;;3.60;;
21611;SDS011;47005;52.292;13.452;2023-01-08T00:06:48;8.63;;;4.03;;
21611;SDS011;47005;52.292;13.452;2023-01-08T00:09:13;4.87;;;3.27;;
21611;SDS011;47005;52.292;13.452;2023-01-08T00:11:39;8.03;;;3.63;;
21611;SDS011;47005;52.292;13.452;2023-01-08T00:14:05;5.37;;;2.93;;
21611;SDS011;47005;52.292;13.452;2023-01-08T00:16:31;6.47;;;3.90;;
21611;SDS011;47005;52.292;13.452;2023-01-08T00:18:57;5.47;;;3.67;;
21611;SDS011;47005;52.292;13.452;2023-01-08T00:21:22;5.37;;;3.60;;
21611;SDS011;47005;52.292;13.452;2023-01-08T00:23:48;5.40;;;3.10;;
21611;SDS011;47005;52.292;13.452;2023-01-08T00:26:14;5.57;;;3.90;;
21611;SDS011;47005;52.292;13.452;2023-01-08T00:28:39;6.33;;;3.83;;
21611;SDS011;47005;52.292;13.452;2023-01-08T00:31:06;8.13;;;3.57;;
21611;SDS011;47005;52.292;13.452;2023-01-08T00:33:33;6.20;;;3.87;;
21611;SDS011;47005;52.292;13.452;2023-01-08T00:35:59;5.93;;;3.67;;
21611;SDS011;47005;52.292;13.452;2023-01-08T00:38:30;9.33;;;4.10;;
21611;SDS011;47005;52.292;13.452;2023-01-08T00:40:56;5.60;;;3.57;;
21611;SDS011;47005;52.292;13.452;2023-01-08T00:43:21;7.03;;;5.27;;
21611;SDS011;47005;52.292;13.452;2023-01-08T00:45:47;4.47;;;2.90;;
21611;SDS011;47005;52.292;13.452;2023-01-08T00:48:15;6.73;;;3.67;;
21611;SDS011;47005;52.292;13.452;2023-01-08T00:50:41;6.90;;;4.13;;
21611;SDS011;47005;52.292;13.452;2023-01-08T00:53:06;6.00;;;3.97;;
21611;SDS011;47005;52.292;13.452;2023-01-08T00:55:32;6.20;;;3.77;;
21611;SDS011;47005;52.292;13.452;2023-01-08T00:57:57;6.53;;;4.27;;
21611;SDS011;47005;52.292;13.452;2023-01-08T01:00:23;7.40;;;3.57;;
21611;SDS011;47005;52.292;13.452;2023-01-08T01:02:49;6.50;;;4.50;;
21611;SDS011;47005;52.292;13.452;2023-01-08T01:05:15;6.00;;;3.93;;
21611;SDS011;47005;52.292;13.452;2023-01-08T01:07:42;6.43;;;3.50;;
21611;SDS011;47005;52.292;13.452;2023-01-08T01:10:08;7.23;;;4.27;;
21611;SDS011;47005;52.292;13.452;2023-01-08T01:12:36;8.03;;;5.07;;
21611;SDS011;47005;52.292;13.452;2023-01-08T01:15:03;7.00;;;4.73;;
21611;SDS011;47005;52.292;13.452;2023-01-08T01:17:30;10.87;;;4.80;;
21611;SDS011;47005;52.292;13.452;2023-01-08T01:19:56;5.57;;;3.70;;
21611;SDS011;47005;52.292;13.452;2023-01-08T01:22:21;5.33;;;3.70;;
21611;SDS011;47005;52.292;13.452;2023-01-08T01:24:47;8.00;;;4.70;;
21611;SDS011;47005;52.292;13.452;2023-01-08T01:27:13;7.40;;;4.40;;
21611;SDS011;47005;52.292;13.452;2023-01-08T01:29:38;6.80;;;4.20;;
21611;SDS011;47005;52.292;13.452;2023-01-08T01:32:04;5.73;;;3.73;;
21611;SDS011;47005;52.292;13.452;2023-01-08T01:34:30;6.07;;;3.97;;
21611;SDS011;47005;52.292;13.452;2023-01-08T01:36:56;6.90;;;4.97;;
21611;SDS011;47005;52.292;13.452;2023-01-08T01:39:21;6.17;;;4.47;;
21611;SDS011;47005;52.292;13.452;2023-01-08T01:41:47;6.53;;;4.17;;
21611;SDS011;47005;52.292;13.452;2023-01-08T01:46:57;8.97;;;4.50;;
21611;SDS011;47005;52.292;13.452;2023-01-08T01:49:24;8.50;;;4.23;;
21611;SDS011;47005;52.292;13.452;2023-01-08T01:51:51;8.03;;;4.33;;
21611;SDS011;47005;52.292;13.452;2023-01-08T01:54:19;5.93;;;4.80;;
21611;SDS011;47005;52.292;13.452;2023-01-08T01:56:46;7.30;;;4.43;;
21611;SDS011;47005;52.292;13.452;2023-01-08T01:59:12;7.10;;;4.97;;
21611;SDS011;47005;52.292;13.452;2023-01-08T02:01:39;7.47;;;5.00;;
21611;SDS011;47005;52.292;13.452;2023-01-08T02:04:08;7.90;;;5.47;;
21611;SDS011;47005;52.292;13.452;2023-01-08T02:06:41;6.83;;;4.63;;
21611;SDS011;47005;52.292;13.452;2023-01-08T02:15:17;7.20;;;5.07;;
21611;SDS011;47005;52.292;13.452;2023-01-08T02:18:01;8.07;;;4.83;;
21611;SDS011;47005;52.292;13.452;2023-01-08T02:20:33;8.27;;;5.67;;
21611;SDS011;47005;52.292;13.452;2023-01-08T02:28:41;10.53;;;6.03;;
21611;SDS011;47005;52.292;13.452;2023-01-08T02:31:13;11.73;;;6.70;;
21611;SDS011;47005;52.292;13.452;2023-01-08T02:33:41;12.80;;;7.13;;
21611;SDS011;47005;52.292;13.452;2023-01-08T02:39:03;11.10;;;6.77;;
21611;SDS011;47005;52.292;13.452;2023-01-08T02:50:07;11.83;;;6.20;;
21611;SDS011;47005;52.292;13.452;2023-01-08T02:52:46;12.47;;;5.57;;
21611;SDS011;47005;52.292;13.452;2023-01-08T02:55:16;8.83;;;5.73;;
21611;SDS011;47005;52.292;13.452;2023-01-08T02:57:44;10.37;;;6.17;;
21611;SDS011;47005;52.292;13.452;2023-01-08T03:00:11;10.43;;;6.03;;
21611;SDS011;47005;52.292;13.452;2023-01-08T03:02:37;11.67;;;6.90;;
21611;SDS011;47005;52.292;13.452;2023-01-08T03:05:17;12.43;;;5.97;;
21611;SDS011;47005;52.292;13.452;2023-01-08T03:07:49;8.50;;;5.33;;
21611;SDS011;47005;52.292;13.452;2023-01-08T03:10:15;9.80;;;6.13;;
21611;SDS011;47005;52.292;13.452;2023-01-08T03:12:52;9.00;;;5.90;;
21611;SDS011;47005;52.292;13.452;2023-01-08T03:15:26;7.00;;;4.77;;
21611;SDS011;47005;52.292;13.452;2023-01-08T03:17:59;9.53;;;5.97;;
21611;SDS011;47005;52.292;13.452;2023-01-08T03:20:30;8.10;;;6.23;;
21611;SDS011;47005;52.292;13.452;2023-01-08T03:22:59;8.80;;;6.00;;
21611;SDS011;47005;52.292;13.452;2023-01-08T03:25:28;6.97;;;5.83;;
21611;SDS011;47005;52.292;13.452;2023-01-08T03:27:56;8.70;;;5.50;;
21611;SDS011;47005;52.292;13.452;2023-01-08T03:30:25;6.67;;;5.00;;
21611;SDS011;47005;52.292;13.452;2023-01-08T03:32:53;8.63;;;5.83;;
21611;SDS011;47005;52.292;13.452;2023-01-08T03:35:22;9.43;;;6.17;;
21611;SDS011;47005;52.292;13.452;2023-01-08T03:37:51;8.03;;;5.80;;
21611;SDS011;47005;52.292;13.452;2023-01-08T03:40:30;8.63;;;5.83;;
21611;SDS011;47005;52.292;13.452;2023-01-08T03:43:02;9.20;;;6.20;;
21611;SDS011;47005;52.292;13.452;2023-01-08T03:45:28;10.00;;;6.23;;
21611;SDS011;47005;52.292;13.452;2023-01-08T03:47:55;13.10;;;5.63;;
21611;SDS011;47005;52.292;13.452;2023-01-08T03:50:24;9.93;;;5.53;;
21611;SDS011;47005;52.292;13.452;2023-01-08T03:52:52;7.93;;;6.30;;
21611;SDS011;47005;52.292;13.452;2023-01-08T03:55:18;8.17;;;5.50;;
21611;SDS011;47005;52.292;13.452;2023-01-08T03:57:43;9.97;;;6.03;;
21611;SDS011;47005;52.292;13.452;2023-01-08T04:00:09;9.80;;;6.33;;
21611;SDS011;47005;52.292;13.452;2023-01-08T04:02:35;7.83;;;5.67;;
21611;SDS011;47005;52.292;13.452;2023-01-08T04:05:01;9.60;;;6.00;;
21611;SDS011;47005;52.292;13.452;2023-01-08T04:07:26;9.23;;;5.97;;
21611;SDS011;47005;52.292;13.452;2023-01-08T04:09:52;8.53;;;6.63;;
21611;SDS011;47005;52.292;13.452;2023-01-08T04:12:18;9.93;;;5.93;;
21611;SDS011;47005;52.292;13.452;2023-01-08T04:14:43;7.87;;;5.80;;
21611;SDS011;47005;52.292;13.452;2023-01-08T04:17:10;11.03;;;6.57;;
21611;SDS011;47005;52.292;13.452;2023-01-08T04:19:36;7.80;;;5.43;;
21611;SDS011;47005;52.292;13.452;2023-01-08T04:22:02;10.67;;;6.10;;
21611;SDS011;47005;52.292;13.452;2023-01-08T04:24:28;6.77;;;5.77;;
21611;SDS011;47005;52.292;13.452;2023-01-08T04:26:53;7.30;;;5.80;;
21611;SDS011;47005;52.292;13.452;2023-01-08T04:29:19;7.63;;;5.57;;
21611;SDS011;47005;52.292;13.452;2023-01-08T04:31:44;13.07;;;5.87;;
21611;SDS011;47005;52.292;13.452;2023-01-08T04:34:10;10.80;;;6.00;;
21611;SDS011;47005;52.292;13.452;2023-01-08T04:36:36;7.33;;;5.80;;
21611;SDS011;47005;52.292;13.452;2023-01-08T04:39:02;10.77;;;5.70;;
21611;SDS011;47005;52.292;13.452;2023-01-08T04:41:28;10.50;;;5.83;;
21611;SDS011;47005;52.292;13.452;2023-01-08T04:43:53;7.93;;;5.97;;
21611;SDS011;47005;52.292;13.452;2023-01-08T04:46:19;7.87;;;5.93;;
21611;SDS011;47005;52.292;13.452;2023-01-08T04:48:44;7.53;;;6.00;;
21611;SDS011;47005;52.292;13.452;2023-01-08T04:51:10;8.17;;;6.17;;
21611;SDS011;47005;52.292;13.452;2023-01-08T04:53:36;8.90;;;5.73;;
21611;SDS011;47005;52.292;13.452;2023-01-08T04:56:07;7.80;;;5.77;;
21611;SDS011;47005;52.292;13.452;2023-01-08T04:58:34;10.10;;;5.60;;
21611;SDS011;47005;52.292;13.452;2023-01-08T05:01:08;8.10;;;5.50;;
21611;SDS011;47005;52.292;13.452;2023-01-08T05:03:37;7.17;;;5.40;;
21611;SDS011;47005;52.292;13.452;2023-01-08T05:06:03;7.27;;;5.33;;
21611;SDS011;47005;52.292;13.452;2023-01-08T05:08:30;7.10;;;5.50;;
21611;SDS011;47005;52.292;13.452;2023-01-08T05:10:57;7.67;;;5.13;;
21611;SDS011;47005;52.292;13.452;2023-01-08T05:13:23;12.90;;;5.53;;
21611;SDS011;47005;52.292;13.452;2023-01-08T05:15:49;10.53;;;6.00;;
21611;SDS011;47005;52.292;13.452;2023-01-08T05:18:15;7.90;;;5.47;;
21611;SDS011;47005;52.292;13.452;2023-01-08T05:20:40;7.87;;;5.33;;
21611;SDS011;47005;52.292;13.452;2023-01-08T05:23:06;12.27;;;5.07;;
21611;SDS011;47005;52.292;13.452;2023-01-08T05:25:31;11.10;;;5.20;;
21611;SDS011;47005;52.292;13.452;2023-01-08T05:27:57;8.17;;;5.73;;
21611;SDS011;47005;52.292;13.452;2023-01-08T05:30:23;7.30;;;5.43;;
21611;SDS011;47005;52.292;13.452;2023-01-08T05:32:48;6.77;;;4.27;;
21611;SDS011;47005;52.292;13.452;2023-01-08T05:35:14;7.10;;;5.77;;
21611;SDS011;47005;52.292;13.452;2023-01-08T05:37:39;8.23;;;5.10;;
21611;SDS011;47005;52.292;13.452;2023-01-08T05:40:05;6.80;;;5.07;;
21611;SDS011;47005;52.292;13.452;2023-01-08T05:42:32;9.60;;;5.57;;
21611;SDS011;47005;52.292;13.452;2023-01-08T05:44:59;6.03;;;4.00;;
21611;SDS011;47005;52.292;13.452;2023-01-08T05:47:28;6.73;;;4.57;;
21611;SDS011;47005;52.292;13.452;2023-01-08T05:49:54;7.17;;;5.10;;
21611;SDS011;47005;52.292;13.452;2023-01-08T05:52:20;11.33;;;4.80;;
21611;SDS011;47005;52.292;13.452;2023-01-08T05:54:46;6.90;;;4.77;;
21611;SDS011;47005;52.292;13.452;2023-01-08T05:57:11;7.20;;;4.93;;
21611;SDS011;47005;52.292;13.452;2023-01-08T05:59:37;6.63;;;4.17;;
21611;SDS011;47005;52.292;13.452;2023-01-08T06:02:02;8.67;;;4.53;;
21611;SDS011;47005;52.292;13.452;2023-01-08T06:04:28;7.67;;;4.00;;
21611;SDS011;47005;52.292;13.452;2023-01-08T06:06:54;6.03;;;4.13;;
21611;SDS011;47005;52.292;13.452;2023-01-08T06:09:19;5.63;;;3.97;;
21611;SDS011;47005;52.292;13.452;2023-01-08T06:11:45;6.33;;;4.30;;
21611;SDS011;47005;52.292;13.452;2023-01-08T06:14:11;5.63;;;3.67;;
21611;SDS011;47005;52.292;13.452;2023-01-08T06:16:38;5.90;;;3.63;;
21611;SDS011;47005;52.292;13.452;2023-01-08T06:19:04;7.43;;;4.00;;
21611;SDS011;47005;52.292;13.452;2023-01-08T06:21:29;5.43;;;3.80;;
21611;SDS011;47005;52.292;13.452;2023-01-08T06:23:55;7.07;;;4.03;;
21611;SDS011;47005;52.292;13.452;2023-01-08T06:26:20;5.87;;;3.93;;
21611;SDS011;47005;52.292;13.452;2023-01-08T06:28:46;4.40;;;3.10;;
21611;SDS011;47005;52.292;13.452;2023-01-08T06:31:12;7.83;;;3.17;;
21611;SDS011;47005;52.292;13.452;2023-01-08T06:33:37;5.73;;;3.83;;
21611;SDS011;47005;52.292;13.452;2023-01-08T06:36:03;4.17;;;3.17;;
21611;SDS011;47005;52.292;13.452;2023-01-08T06:38:30;7.10;;;3.57;;
21611;SDS011;47005;52.292;13.452;2023-01-08T06:40:56;4.63;;;3.27;;
21611;SDS011;47005;52.292;13.452;2023-01-08T06:43:22;4.43;;;3.50;;
21611;SDS011;47005;52.292;13.452;2023-01-08T06:45:54;3.97;;;3.00;;
21611;SDS011;47005;52.292;13.452;2023-01-08T06:48:22;5.87;;;3.20;;
21611;SDS011;47005;52.292;13.452;2023-01-08T06:50:49;5.50;;;3.97;;
21611;SDS011;47005;52.292;13.452;2023-01-08T06:53:15;4.93;;;3.00;;
21611;SDS011;47005;52.292;13.452;2023-01-08T06:55:40;5.13;;;3.30;;
21611;SDS011;47005;52.292;13.452;2023-01-08T06:58:06;5.13;;;3.67;;
21611;SDS011;47005;52.292;13.452;2023-01-08T07:00:33;4.80;;;3.13;;
21611;SDS011;47005;52.292;13.452;2023-01-08T07:02:59;5.00;;;3.63;;
21611;SDS011;47005;52.292;13.452;2023-01-08T07:05:25;5.23;;;3.23;;
21611;SDS011;47005;52.292;13.452;2023-01-08T07:07:50;4.63;;;3.03;;
21611;SDS011;47005;52.292;13.452;2023-01-08T07:10:16;4.67;;;3.10;;
21611;SDS011;47005;52.292;13.452;2023-01-08T07:12:41;7.23;;;3.40;;
21611;SDS011;47005;52.292;13.452;2023-01-08T07:15:07;5.70;;;3.03;;
21611;SDS011;47005;52.292;13.452;2023-01-08T07:17:33;10.63;;;3.30;;
21611;SDS011;47005;52.292;13.452;2023-01-08T07:19:59;6.33;;;3.13;;
21611;SDS011;47005;52.292;13.452;2023-01-08T07:22:24;4.40;;;3.10;;
21611;SDS011;47005;52.292;13.452;2023-01-08T07:24:51;5.23;;;3.20;;
21611;SDS011;47005;52.292;13.452;2023-01-08T07:27:17;8.27;;;3.40;;
21611;SDS011;47005;52.292;13.452;2023-01-08T07:29:43;4.93;;;3.03;;
21611;SDS011;47005;52.292;13.452;2023-01-08T07:32:08;5.67;;;3.20;;
21611;SDS011;47005;52.292;13.452;2023-01-08T07:34:34;4.60;;;3.03;;
21611;SDS011;47005;52.292;13.452;2023-01-08T07:37:00;3.90;;;2.70;;
21611;SDS011;47005;52.292;13.452;2023-01-08T07:39:26;4.20;;;2.73;;
21611;SDS011;47005;52.292;13.452;2023-01-08T07:41:52;5.77;;;3.00;;
21611;SDS011;47005;52.292;13.452;2023-01-08T07:44:18;5.00;;;3.43;;
21611;SDS011;47005;52.292;13.452;2023-01-08T07:46:43;5.03;;;3.17;;
21611;SDS011;47005;52.292;13.452;2023-01-08T07:49:10;5.73;;;3.43;;
21611;SDS011;47005;52.292;13.452;2023-01-08T07:51:35;6.57;;;3.53;;
21611;SDS011;47005;52.292;13.452;2023-01-08T07:54:01;4.80;;;3.23;;
21611;SDS011;47005;52.292;13.452;2023-01-08T07:56:27;4.70;;;3.17;;
21611;SDS011;47005;52.292;13.452;2023-01-08T07:58:52;5.73;;;2.80;;
21611;SDS011;47005;52.292;13.452;2023-01-08T08:01:18;3.80;;;2.63;;
21611;SDS011;47005;52.292;13.452;2023-01-08T08:03:43;5.23;;;3.27;;
21611;SDS011;47005;52.292;13.452;2023-01-08T08:06:09;5.73;;;3.00;;
21611;SDS011;47005;52.292;13.452;2023-01-08T08:08:35;4.73;;;2.70;;
21611;SDS011;47005;52.292;13.452;2023-01-08T08:11:01;3.87;;;2.70;;
21611;SDS011;47005;52.292;13.452;2023-01-08T08:13:26;5.70;;;3.27;;
21611;SDS011;47005;52.292;13.452;2023-01-08T08:15:52;5.97;;;3.10;;
21611;SDS011;47005;52.292;13.452;2023-01-08T08:18:18;4.17;;;2.67;;
21611;SDS011;47005;52.292;13.452;2023-01-08T08:20:43;5.70;;;2.93;;
21611;SDS011;47005;52.292;13.452;2023-01-08T08:23:12;4.23;;;2.83;;
21611;SDS011;47005;52.292;13.452;2023-01-08T08:25:39;5.50;;;2.83;;
21611;SDS011;47005;52.292;13.452;2023-01-08T08:28:06;5.67;;;3.13;;
21611;SDS011;47005;52.292;13.452;2023-01-08T08:30:35;3.97;;;2.60;;
21611;SDS011;47005;52.292;13.452;2023-01-08T08:33:01;4.20;;;2.93;;
21611;SDS011;47005;52.292;13.452;2023-01-08T08:35:29;5.73;;;2.97;;
21611;SDS011;47005;52.292;13.452;2023-01-08T08:37:55;4.97;;;3.20;;
21611;SDS011;47005;52.292;13.452;2023-01-08T08:40:21;5.30;;;3.23;;
21611;SDS011;47005;52.292;13.452;2023-01-08T08:42:47;8.50;;;3.27;;
21611;SDS011;47005;52.292;13.452;2023-01-08T08:45:13;4.53;;;3.03;;
21611;SDS011;47005;52.292;13.452;2023-01-08T08:47:39;5.27;;;3.20;;
21611;SDS011;47005;52.292;13.452;2023-01-08T08:50:05;5.23;;;2.83;;
21611;SDS011;47005;52.292;13.452;2023-01-08T08:52:31;5.77;;;3.10;;
21611;SDS011;47005;52.292;13.452;2023-01-08T08:54:58;5.13;;;3.00;;
21611;SDS011;47005;52.292;13.452;2023-01-08T08:57:24;4.97;;;3.37;;
21611;SDS011;47005;52.292;13.452;2023-01-08T08:59:50;6.20;;;2.63;;
21611;SDS011;47005;52.292;13.452;2023-01-08T09:02:16;4.67;;;3.10;;
21611;SDS011;47005;52.292;13.452;2023-01-08T09:04:42;5.97;;;3.40;;
21611;SDS011;47005;52.292;13.452;2023-01-08T09:07:08;7.43;;;3.23;;
21611;SDS011;47005;52.292;13.452;2023-01-08T09:09:33;4.27;;;3.27;;
21611;SDS011;47005;52.292;13.452;2023-01-08T09:11:59;5.07;;;3.37;;
21611;SDS011;47005;52.292;13.452;2023-01-08T09:14:25;6.33;;;4.13;;
21611;SDS011;47005;52.292;13.452;2023-01-08T09:16:50;4.93;;;3.27;;
21611;SDS011;47005;52.292;13.452;2023-01-08T09:19:16;6.80;;;4.33;;
21611;SDS011;47005;52.292;13.452;2023-01-08T09:21:42;7.63;;;4.23;;
21611;SDS011;47005;52.292;13.452;2023-01-08T09:24:10;5.93;;;3.20;;
21611;SDS011;47005;52.292;13.452;2023-01-08T09:26:36;5.50;;;3.80;;
21611;SDS011;47005;52.292;13.452;2023-01-08T09:29:01;5.03;;;3.07;;
21611;SDS011;47005;52.292;13.452;2023-01-08T09:31:27;5.30;;;3.23;;
21611;SDS011;47005;52.292;13.452;2023-01-08T09:33:53;4.87;;;2.93;;
21611;SDS011;47005;52.292;13.452;2023-01-08T09:36:19;5.87;;;3.73;;
21611;SDS011;47005;52.292;13.452;2023-01-08T09:38:44;7.97;;;4.30;;
21611;SDS011;47005;52.292;13.452;2023-01-08T09:41:12;4.87;;;2.80;;
21611;SDS011;47005;52.292;13.452;2023-01-08T09:44:00;6.40;;;3.57;;
21611;SDS011;47005;52.292;13.452;2023-01-08T09:46:28;5.20;;;3.13;;
21611;SDS011;47005;52.292;13.452;2023-01-08T09:48:56;6.07;;;3.43;;
21611;SDS011;47005;52.292;13.452;2023-01-08T09:51:34;5.80;;;3.57;;
21611;SDS011;47005;52.292;13.452;2023-01-08T09:54:02;7.43;;;3.37;;
21611;SDS011;47005;52.292;13.452;2023-01-08T09:56:29;6.13;;;3.17;;
21611;SDS011;47005;52.292;13.452;2023-01-08T09:58:58;4.10;;;2.57;;
21611;SDS011;47005;52.292;13.452;2023-01-08T10:01:30;5.20;;;3.23;;
21611;SDS011;47005;52.292;13.452;2023-01-08T10:04:17;7.87;;;3.17;;
21611;SDS011;47005;52.292;13.452;2023-01-08T10:06:49;7.40;;;3.60;;
21611;SDS011;47005;52.292;13.452;2023-01-08T10:09:29;8.50;;;4.70;;
21611;SDS011;47005;52.292;13.452;2023-01-08T10:12:01;7.47;;;5.13;;
21611;SDS011;47005;52.292;13.452;2023-01-08T10:14:35;7.03;;;4.13;;
21611;SDS011;47005;52.292;13.452;2023-01-08T10:17:15;6.30;;;4.13;;
21611;SDS011;47005;52.292;13.452;2023-01-08T10:19:54;5.40;;;3.80;;
21611;SDS011;47005;52.292;13.452;2023-01-08T10:22:22;5.07;;;3.17;;
21611;SDS011;47005;52.292;13.452;2023-01-08T10:24:50;7.73;;;4.60;;
21611;SDS011;47005;52.292;13.452;2023-01-08T10:27:20;5.70;;;3.80;;
21611;SDS011;47005;52.292;13.452;2023-01-08T10:29:50;7.43;;;4.13;;
21611;SDS011;47005;52.292;13.452;2023-01-08T10:32:17;4.90;;;3.33;;
21611;SDS011;47005;52.292;13.452;2023-01-08T10:34:50;4.93;;;3.63;;
21611;SDS011;47005;52.292;13.452;2023-01-08T10:37:26;8.80;;;4.87;;
21611;SDS011;47005;52.292;13.452;2023-01-08T10:39:58;6.47;;;4.50;;
21611;SDS011;47005;52.292;13.452;2023-01-08T10:42:44;6.47;;;4.70;;
21611;SDS011;47005;52.292;13.452;2023-01-08T10:45:14;9.33;;;4.67;;
21611;SDS011;47005;52.292;13.452;2023-01-08T10:47:46;5.50;;;3.77;;
21611;SDS011;47005;52.292;13.452;2023-01-08T10:50:19;5.30;;;3.90;;
21611;SDS011;47005;52.292;13.452;2023-01-08T10:53:01;4.70;;;3.40;;
21611;SDS011;47005;52.292;13.452;2023-01-08T10:55:29;5.90;;;3.73;;
21611;SDS011;47005;52.292;13.452;2023-01-08T11:00:33;6.63;;;4.73;;
21611;SDS011;47005;52.292;13.452;2023-01-08T11:03:01;7.97;;;5.07;;
21611;SDS011;47005;52.292;13.452;2023-01-08T11:05:31;7.27;;;4.83;;
21611;SDS011;47005;52.292;13.452;2023-01-08T11:07:59;8.10;;;5.17;;
21611;SDS011;47005;52.292;13.452;2023-01-08T11:10:27;8.53;;;4.73;;
21611;SDS011;47005;52.292;13.452;2023-01-08T11:12:55;7.97;;;4.40;;
21611;SDS011;47005;52.292;13.452;2023-01-08T11:15:27;12.93;;;4.77;;
21611;SDS011;47005;52.292;13.452;2023-01-08T11:18:05;10.10;;;5.47;;
21611;SDS011;47005;52.292;13.452;2023-01-08T11:20:37;7.37;;;5.47;;
21611;SDS011;47005;52.292;13.452;2023-01-08T11:23:12;10.63;;;5.60;;
21611;SDS011;47005;52.292;13.452;2023-01-08T11:25:46;7.73;;;5.87;;
21611;SDS011;47005;52.292;13.452;2023-01-08T11:28:32;8.03;;;5.77;;
21611;SDS011;47005;52.292;13.452;2023-01-08T11:31:53;6.63;;;4.43;;
21611;SDS011;47005;52.292;13.452;2023-01-08T11:34:01;6.90;;;4.90;;
21611;SDS011;47005;52.292;13.452;2023-01-08T11:36:35;13.93;;;5.73;;
21611;SDS011;47005;52.292;13.452;2023-01-08T11:39:10;8.10;;;5.40;;
21611;SDS011;47005;52.292;13.452;2023-01-08T11:49:50;7.80;;;5.10;;
21611;SDS011;47005;52.292;13.452;2023-01-08T11:55:12;7.07;;;4.37;;
21611;SDS011;47005;52.292;13.452;2023-01-08T12:12:01;8.37;;;5.07;;
21611;SDS011;47005;52.292;13.452;2023-01-08T12:17:47;5.33;;;3.50;;
21611;SDS011;47005;52.292;13.452;2023-01-08T12:25:53;6.17;;;4.37;;
21611;SDS011;47005;52.292;13.452;2023-01-08T12:33:38;6.97;;;4.37;;
21611;SDS011;47005;52.292;13.452;2023-01-08T12:36:13;5.47;;;3.47;;
21611;SDS011;47005;52.292;13.452;2023-01-08T12:38:44;6.70;;;3.90;;
21611;SDS011;47005;52.292;13.452;2023-01-08T12:41:18;6.87;;;4.40;;
21611;SDS011;47005;52.292;13.452;2023-01-08T12:46:10;10.33;;;3.80;;
21611;SDS011;47005;52.292;13.452;2023-01-08T12:48:40;8.67;;;4.37;;
21611;SDS011;47005;52.292;13.452;2023-01-08T12:51:12;8.90;;;3.93;;
21611;SDS011;47005;52.292;13.452;2023-01-08T13:04:44;7.43;;;4.37;;
21611;SDS011;47005;52.292;13.452;2023-01-08T13:07:18;8.53;;;4.20;;
21611;SDS011;47005;52.292;13.452;2023-01-08T13:09:54;8.27;;;4.50;;
21611;SDS011;47005;52.292;13.452;2023-01-08T13:12:36;10.40;;;4.40;;
21611;SDS011;47005;52.292;13.452;2023-01-08T13:15:05;6.87;;;4.67;;
21611;SDS011;47005;52.292;13.452;2023-01-08T13:17:32;7.73;;;4.90;;
21611;SDS011;47005;52.292;13.452;2023-01-08T13:19:59;8.30;;;4.93;;
21611;SDS011;47005;52.292;13.452;2023-01-08T13:22:32;7.63;;;5.93;;
21611;SDS011;47005;52.292;13.452;2023-01-08T13:27:44;8.17;;;5.30;;
21611;SDS011;47005;52.292;13.452;2023-01-08T13:32:59;7.97;;;5.27;;
21611;SDS011;47005;52.292;13.452;2023-01-08T13:35:26;7.73;;;5.27;;
21611;SDS011;47005;52.292;13.452;2023-01-08T13:43:00;8.80;;;4.90;;
21611;SDS011;47005;52.292;13.452;2023-01-08T13:45:28;11.20;;;5.97;;
21611;SDS011;47005;52.292;13.452;2023-01-08T13:47:55;10.80;;;5.60;;
21611;SDS011;47005;52.292;13.452;2023-01-08T13:50:22;13.20;;;6.00;;
21611;SDS011;47005;52.292;13.452;2023-01-08T13:52:59;7.60;;;4.80;;
21611;SDS011;47005;52.292;13.452;2023-01-08T13:55:28;7.17;;;5.27;;
21611;SDS011;47005;52.292;13.452;2023-01-08T13:57:56;8.43;;;5.60;;
21611;SDS011;47005;52.292;13.452;2023-01-08T14:00:30;7.43;;;5.57;;
21611;SDS011;47005;52.292;13.452;2023-01-08T14:03:13;12.60;;;7.17;;
21611;SDS011;47005;52.292;13.452;2023-01-08T14:05:46;11.70;;;7.53;;
21611;SDS011;47005;52.292;13.452;2023-01-08T14:08:21;11.20;;;6.83;;
21611;SDS011;47005;52.292;13.452;2023-01-08T14:10:48;12.10;;;7.33;;
21611;SDS011;47005;52.292;13.452;2023-01-08T14:13:14;13.90;;;8.00;;
21611;SDS011;47005;52.292;13.452;2023-01-08T14:15:41;11.40;;;7.27;;
21611;SDS011;47005;52.292;13.452;2023-01-08T14:18:09;10.70;;;7.57;;
21611;SDS011;47005;52.292;13.452;2023-01-08T14:20:37;11.93;;;7.53;;
21611;SDS011;47005;52.292;13.452;2023-01-08T14:23:39;9.10;;;6.97;;
21611;SDS011;47005;52.292;13.452;2023-01-08T14:26:11;13.83;;;6.87;;
21611;SDS011;47005;52.292;13.452;2023-01-08T14:28:56;12.63;;;7.13;;
21611;SDS011;47005;52.292;13.452;2023-01-08T14:31:25;9.77;;;6.83;;
21611;SDS011;47005;52.292;13.452;2023-01-08T14:33:52;10.90;;;6.73;;
21611;SDS011;47005;52.292;13.452;2023-01-08T14:36:20;11.57;;;7.17;;
21611;SDS011;47005;52.292;13.452;2023-01-08T14:38:46;11.60;;;7.43;;
21611;SDS011;47005;52.292;13.452;2023-01-08T14:41:15;11.33;;;7.37;;
21611;SDS011;47005;52.292;13.452;2023-01-08T14:43:49;14.00;;;8.53;;
21611;SDS011;47005;52.292;13.452;2023-01-08T14:48:46;10.07;;;7.30;;
21611;SDS011;47005;52.292;13.452;2023-01-08T14:51:13;13.03;;;7.53;;
21611;SDS011;47005;52.292;13.452;2023-01-08T14:53:45;11.57;;;6.40;;
21611;SDS011;47005;52.292;13.452;2023-01-08T14:56:16;11.13;;;7.27;;
21611;SDS011;47005;52.292;13.452;2023-01-08T14:58:46;13.03;;;9.13;;
21611;SDS011;47005;52.292;13.452;2023-01-08T15:01:28;11.50;;;7.37;;
21611;SDS011;47005;52.292;13.452;2023-01-08T15:04:04;10.60;;;7.13;;
21611;SDS011;47005;52.292;13.452;2023-01-08T15:06:32;17.47;;;8.43;;
21611;SDS011;47005;52.292;13.452;2023-01-08T15:08:58;10.97;;;8.03;;
21611;SDS011;47005;52.292;13.452;2023-01-08T15:11:24;11.23;;;7.73;;
21611;SDS011;47005;52.292;13.452;2023-01-08T15:13:52;10.87;;;7.43;;
21611;SDS011;47005;52.292;13.452;2023-01-08T15:16:29;11.23;;;8.20;;
21611;SDS011;47005;52.292;13.452;2023-01-08T15:21:31;12.87;;;8.03;;
21611;SDS011;47005;52.292;13.452;2023-01-08T15:23:57;11.27;;;8.67;;
21611;SDS011;47005;52.292;13.452;2023-01-08T15:26:25;12.87;;;8.33;;
21611;SDS011;47005;52.292;13.452;2023-01-08T15:34:07;9.67;;;6.83;;
21611;SDS011;47005;52.292;13.452;2023-01-08T15:36:32;17.43;;;8.40;;
21611;SDS011;47005;52.292;13.452;2023-01-08T15:38:58;11.53;;;8.47;;
21611;SDS011;47005;52.292;13.452;2023-01-08T15:41:24;10.80;;;7.50;;
21611;SDS011;47005;52.292;13.452;2023-01-08T15:44:09;11.20;;;6.93;;
21611;SDS011;47005;52.292;13.452;2023-01-08T15:46:39;10.17;;;6.90;;
21611;SDS011;47005;52.292;13.452;2023-01-08T15:49:04;11.80;;;7.90;;
21611;SDS011;47005;52.292;13.452;2023-01-08T15:51:31;8.63;;;6.33;;
21611;SDS011;47005;52.292;13.452;2023-01-08T15:53:58;8.53;;;6.27;;
21611;SDS011;47005;52.292;13.452;2023-01-08T15:56:25;9.77;;;7.13;;
21611;SDS011;47005;52.292;13.452;2023-01-08T15:58:51;10.90;;;7.50;;
21611;SDS011;47005;52.292;13.452;2023-01-08T16:01:17;9.90;;;6.43;;
21611;SDS011;47005;52.292;13.452;2023-01-08T16:03:43;9.57;;;6.50;;
21611;SDS011;47005;52.292;13.452;2023-01-08T16:06:10;11.30;;;7.33;;
21611;SDS011;47005;52.292;13.452;2023-01-08T16:08:35;11.70;;;9.63;;
21611;SDS011;47005;52.292;13.452;2023-01-08T16:11:01;12.07;;;8.30;;
21611;SDS011;47005;52.292;13.452;2023-01-08T16:13:26;12.03;;;8.93;;
21611;SDS011;47005;52.292;13.452;2023-01-08T16:15:52;12.33;;;7.30;;
21611;SDS011;47005;52.292;13.452;2023-01-08T16:18:19;12.00;;;7.97;;
21611;SDS011;47005;52.292;13.452;2023-01-08T16:20:45;13.63;;;7.77;;